Wan Hai 501 — S6AS7 — position and weather

sailwx.info

Track history (hours):
 
Tides and Currents Weather Stations Pressure Air Temp Water Temp Dewpoint Dewpoint Depression Visibility Wind Speed Wind Dir Waves Ship Positions

Wan Hai 501

Last reported at 2015-Jun-29 17:03 UTC. Time now 2015-Jun-30 03:28 UTC.
Position N 29°46' E 122°00'.

Length 268 m; draft 10.1 m.

Type: Cargo ship. MMSI: 563382000.

Date/timePositionNaut miles runAvg speedWind from/ knotsBaromVisibWave heightAir tempDewpointWater temp
2015-Jun-29 17:03N 29°46' E 122°00'0 0.0
2015-Jun-29 16:33N 29°46' E 122°00'5 4.6
2015-Jun-29 15:33N 29°48' E 122°05'7 7.4
2015-Jun-29 14:33N 29°49' E 122°13'10 9.6
2015-Jun-29 13:33N 29°43' E 122°21'1 0.3
2015-Jun-29 09:23N 29°42' E 122°22'1 0.1
2015-Jun-29 01:33N 29°42' E 122°23'9 9.1
2015-Jun-29 00:33N 29°45' E 122°33'0 0.0
2015-Jun-28 17:26N 29°45' E 122°33'0 0.0
2015-Jun-28 15:32N 29°45' E 122°33'0 0.1
2015-Jun-28 14:20N 29°45' E 122°33'0 0.1
2015-Jun-28 12:14N 29°45' E 122°33'0 0.0
2015-Jun-28 10:08N 29°45' E 122°33'0 0.0
2015-Jun-28 03:19N 29°45' E 122°33'0 0.1
2015-Jun-28 02:31N 29°45' E 122°33'0 0.1
2015-Jun-28 01:33N 29°45' E 122°33'0 0.1
2015-Jun-28 00:33N 29°45' E 122°33'0 0.0
2015-Jun-27 23:33N 29°45' E 122°33'0 0.2
2015-Jun-27 22:33N 29°45' E 122°33'6 5.9
2015-Jun-27 21:33N 29°48' E 122°39'6013.3
2015-Jun-27 17:03N 30°46' E 122°55'5712.7
2015-Jun-27 12:33N 31°15' E 121°58'1513.7
2015-Jun-27 11:29N 31°20' E 121°42'2 1.9
2015-Jun-27 10:22N 31°20' E 121°40'0 0.0
2015-Jun-27 09:10N 31°20' E 121°40'0 0.0
2015-Jun-27 08:16N 31°20' E 121°40'0 0.0
2015-Jun-27 07:28N 31°20' E 121°40'0 0.0
2015-Jun-27 05:31N 31°20' E 121°40'0 0.0
2015-Jun-27 04:31N 31°20' E 121°40'0 0.0
2015-Jun-27 03:31N 31°20' E 121°40'0 0.0
2015-Jun-27 02:28N 31°20' E 121°40'0 0.0
2015-Jun-27 01:31N 31°20' E 121°40'0 0.0
2015-Jun-27 00:31N 31°20' E 121°40'0 0.0
2015-Jun-26 23:31N 31°20' E 121°40'0 0.0
2015-Jun-26 22:31N 31°20' E 121°40'0 0.0
2015-Jun-26 21:28N 31°20' E 121°40'0 0.0
2015-Jun-26 20:31N 31°20' E 121°40'0 0.0
2015-Jun-26 19:31N 31°20' E 121°40'0 0.0
2015-Jun-26 18:31N 31°20' E 121°40'0 0.0
2015-Jun-26 17:28N 31°20' E 121°40'0 0.0
2015-Jun-26 16:22N 31°20' E 121°40'0 0.0
2015-Jun-26 15:25N 31°20' E 121°40'0 0.0
2015-Jun-26 14:25N 31°20' E 121°40'0 0.0
2015-Jun-26 13:31N 31°20' E 121°40'0 0.0
2015-Jun-26 12:31N 31°20' E 121°40'3 2.7
2015-Jun-26 11:33N 31°20' E 121°43'10 9.9
2015-Jun-26 10:33N 31°16' E 121°53'10 9.9
2015-Jun-26 09:33N 31°14' E 122°05'10 9.6
2015-Jun-26 08:33N 31°09' E 122°14'8 7.8
2015-Jun-26 07:33N 31°06' E 122°23'9 8.5
2015-Jun-26 06:33N 31°05' E 122°33'20 0.6
2015-Jun-24 23:09N 30°50' E 122°48'0 0.0
2015-Jun-24 22:30N 30°50' E 122°48'  
2015-Jun-21 20:12N 23°50' E 118°30'  
Track history (hours):
 
Tides and Currents Weather Stations Pressure Air Temp Water Temp Dewpoint Dewpoint Depression Visibility Wind Speed Wind Dir Waves Ship Positions

Wan Hai 501

Last reported at 2015-Jun-29 17:03 UTC. Time now 2015-Jun-30 03:28 UTC.
Position N 29°46' E 122°00'.

Length 268 m; draft 10.1 m.

Type: Cargo ship. MMSI: 563382000.

Date/timePositionNaut miles runAvg speedWind from/ knotsBaromVisibWave heightAir tempDewpointWater temp
2015-Jun-29 17:03N 29°46' E 122°00'0 0.0
2015-Jun-29 16:33N 29°46' E 122°00'5 4.6
2015-Jun-29 15:33N 29°48' E 122°05'7 7.4
2015-Jun-29 14:33N 29°49' E 122°13'10 9.6
2015-Jun-29 13:33N 29°43' E 122°21'1 0.3
2015-Jun-29 09:23N 29°42' E 122°22'1 0.1
2015-Jun-29 01:33N 29°42' E 122°23'9 9.1
2015-Jun-29 00:33N 29°45' E 122°33'0 0.0
2015-Jun-28 17:26N 29°45' E 122°33'0 0.0
2015-Jun-28 15:32N 29°45' E 122°33'0 0.1
2015-Jun-28 14:20N 29°45' E 122°33'0 0.1
2015-Jun-28 12:14N 29°45' E 122°33'0 0.0
2015-Jun-28 10:08N 29°45' E 122°33'0 0.0
2015-Jun-28 03:19N 29°45' E 122°33'0 0.1
2015-Jun-28 02:31N 29°45' E 122°33'0 0.1
2015-Jun-28 01:33N 29°45' E 122°33'0 0.1
2015-Jun-28 00:33N 29°45' E 122°33'0 0.0
2015-Jun-27 23:33N 29°45' E 122°33'0 0.2
2015-Jun-27 22:33N 29°45' E 122°33'6 5.9
2015-Jun-27 21:33N 29°48' E 122°39'6013.3
2015-Jun-27 17:03N 30°46' E 122°55'5712.7
2015-Jun-27 12:33N 31°15' E 121°58'1513.7
2015-Jun-27 11:29N 31°20' E 121°42'2 1.9
2015-Jun-27 10:22N 31°20' E 121°40'0 0.0
2015-Jun-27 09:10N 31°20' E 121°40'0 0.0
2015-Jun-27 08:16N 31°20' E 121°40'0 0.0
2015-Jun-27 07:28N 31°20' E 121°40'0 0.0
2015-Jun-27 05:31N 31°20' E 121°40'0 0.0
2015-Jun-27 04:31N 31°20' E 121°40'0 0.0
2015-Jun-27 03:31N 31°20' E 121°40'0 0.0
2015-Jun-27 02:28N 31°20' E 121°40'0 0.0
2015-Jun-27 01:31N 31°20' E 121°40'0 0.0
2015-Jun-27 00:31N 31°20' E 121°40'0 0.0
2015-Jun-26 23:31N 31°20' E 121°40'0 0.0
2015-Jun-26 22:31N 31°20' E 121°40'0 0.0
2015-Jun-26 21:28N 31°20' E 121°40'0 0.0
2015-Jun-26 20:31N 31°20' E 121°40'0 0.0
2015-Jun-26 19:31N 31°20' E 121°40'0 0.0
2015-Jun-26 18:31N 31°20' E 121°40'0 0.0
2015-Jun-26 17:28N 31°20' E 121°40'0 0.0
2015-Jun-26 16:22N 31°20' E 121°40'0 0.0
2015-Jun-26 15:25N 31°20' E 121°40'0 0.0
2015-Jun-26 14:25N 31°20' E 121°40'0 0.0
2015-Jun-26 13:31N 31°20' E 121°40'0 0.0
2015-Jun-26 12:31N 31°20' E 121°40'3 2.7
2015-Jun-26 11:33N 31°20' E 121°43'10 9.9
2015-Jun-26 10:33N 31°16' E 121°53'10 9.9
2015-Jun-26 09:33N 31°14' E 122°05'10 9.6
2015-Jun-26 08:33N 31°09' E 122°14'8 7.8
2015-Jun-26 07:33N 31°06' E 122°23'9 8.5
2015-Jun-26 06:33N 31°05' E 122°33'20 0.6
2015-Jun-24 23:09N 30°50' E 122°48'0 0.0
2015-Jun-24 22:30N 30°50' E 122°48'  
2015-Jun-21 20:12N 23°50' E 118°30'  

Dump ship's entire track history